createdAt,value
2019-05-11T00:00:55.579Z,15.60
2019-05-11T00:01:55.568Z,14.60
2019-05-11T00:02:55.585Z,17.80
2019-05-11T00:03:55.548Z,15.30
2019-05-11T00:04:55.532Z,15.30
2019-05-11T00:05:55.520Z,14.90
2019-05-11T00:06:55.511Z,17.00
2019-05-11T00:07:55.505Z,16.70
2019-05-11T00:08:55.520Z,18.20
2019-05-11T00:09:58.170Z,14.30
2019-05-11T00:10:55.464Z,15.90
2019-05-11T00:11:55.461Z,17.70
2019-05-11T00:12:55.462Z,13.30
2019-05-11T00:13:55.430Z,16.90
2019-05-11T00:14:55.448Z,13.40
2019-05-11T00:15:55.408Z,20.80
2019-05-11T00:16:55.397Z,13.40
2019-05-11T00:17:55.386Z,17.10
2019-05-11T00:18:55.374Z,15.70
2019-05-11T00:19:55.363Z,15.30
2019-05-11T00:20:55.367Z,13.00
2019-05-11T00:21:55.340Z,15.40
2019-05-11T00:22:55.334Z,16.00
2019-05-11T00:23:55.317Z,12.20
2019-05-11T00:24:55.312Z,13.00
2019-05-11T00:25:55.324Z,14.40
2019-05-11T00:26:55.282Z,13.90
2019-05-11T00:27:55.279Z,13.40
2019-05-11T00:28:55.260Z,17.50
2019-05-11T00:29:55.251Z,18.80
2019-05-11T00:30:55.239Z,14.90
2019-05-11T00:31:55.253Z,15.90
2019-05-11T00:32:55.216Z,15.60
2019-05-11T00:33:55.212Z,16.10
2019-05-11T00:34:55.194Z,15.70
2019-05-11T00:35:55.187Z,15.80
2019-05-11T00:36:55.173Z,16.20
2019-05-11T00:37:55.175Z,16.60
2019-05-11T00:38:55.154Z,12.90
2019-05-11T00:39:55.135Z,15.10
2019-05-11T00:40:55.128Z,17.20
2019-05-11T00:41:55.115Z,15.90
2019-05-11T00:42:55.131Z,13.50
2019-05-11T00:43:55.091Z,14.50
2019-05-11T00:44:55.083Z,13.50
2019-05-11T00:45:55.069Z,13.40
2019-05-11T00:46:55.060Z,12.40
2019-05-11T00:47:55.057Z,14.30
2019-05-11T00:48:55.066Z,15.70
2019-05-11T00:49:55.026Z,15.30
2019-05-11T00:50:55.013Z,15.40
2019-05-11T00:51:55.005Z,16.60
2019-05-11T00:52:54.988Z,14.50
2019-05-11T00:53:54.978Z,15.20
2019-05-11T00:54:54.995Z,14.50
2019-05-11T00:55:54.957Z,13.70
2019-05-11T00:56:54.942Z,13.60
2019-05-11T00:57:54.933Z,13.30
2019-05-11T00:58:54.922Z,13.10
2019-05-11T00:59:54.910Z,15.10
2019-05-11T01:00:54.939Z,13.30
2019-05-11T01:01:54.892Z,17.00
2019-05-11T01:02:54.876Z,14.90
2019-05-11T01:03:54.872Z,13.60
2019-05-11T01:04:54.853Z,15.70
2019-05-11T01:05:54.894Z,15.20
2019-05-11T01:06:54.831Z,15.40
2019-05-11T01:07:54.818Z,17.50
2019-05-11T01:08:54.807Z,17.80
2019-05-11T01:09:54.798Z,25.70
2019-05-11T01:10:54.784Z,23.30
2019-05-11T01:11:54.804Z,23.20
2019-05-11T01:12:54.767Z,20.00
2019-05-11T01:13:54.750Z,18.40
2019-05-11T01:14:54.741Z,16.40
2019-05-11T01:15:54.728Z,18.60
2019-05-11T01:16:54.721Z,19.50
2019-05-11T01:17:54.724Z,19.30
2019-05-11T01:18:54.695Z,20.00
2019-05-11T01:19:54.682Z,16.80
2019-05-11T01:20:54.671Z,20.30
2019-05-11T01:21:54.662Z,19.10
2019-05-11T01:22:54.674Z,19.30
2019-05-11T01:23:54.638Z,18.40
2019-05-11T01:24:54.629Z,17.90
2019-05-11T01:25:54.638Z,18.10
2019-05-11T01:26:54.602Z,20.50
2019-05-11T01:27:54.589Z,17.50
2019-05-11T01:28:54.608Z,19.90
2019-05-11T01:29:54.571Z,16.20
2019-05-11T01:30:54.555Z,16.60
2019-05-11T01:31:54.545Z,14.80
2019-05-11T01:32:54.534Z,16.10
2019-05-11T01:33:54.529Z,15.90
2019-05-11T01:34:54.551Z,17.10
2019-05-11T01:35:54.499Z,15.30
2019-05-11T01:36:54.499Z,16.40
2019-05-11T01:37:54.485Z,15.30
2019-05-11T01:38:54.467Z,18.10
2019-05-11T01:39:54.462Z,15.50
2019-05-11T01:40:58.796Z,14.80
2019-05-11T01:41:54.439Z,14.60
2019-05-11T01:42:54.420Z,13.90
2019-05-11T01:43:54.409Z,14.00
2019-05-11T01:44:54.404Z,14.50
2019-05-11T01:45:54.414Z,13.70
2019-05-11T01:46:54.377Z,12.80
2019-05-11T01:47:54.363Z,14.00
2019-05-11T01:48:54.355Z,14.80
2019-05-11T01:49:54.339Z,14.70
2019-05-11T01:50:54.330Z,14.70
2019-05-11T01:51:54.346Z,13.80
2019-05-11T01:52:54.350Z,16.00
2019-05-11T01:53:54.294Z,13.30
2019-05-11T01:54:54.284Z,15.10
2019-05-11T01:55:54.296Z,14.50
2019-05-11T01:56:54.262Z,14.60
2019-05-11T01:57:54.270Z,15.10
2019-05-11T01:58:54.241Z,13.30
2019-05-11T01:59:54.225Z,14.90
2019-05-11T02:00:54.215Z,13.00
2019-05-11T02:01:54.204Z,14.10
2019-05-11T02:02:54.217Z,14.10
2019-05-11T02:03:54.179Z,13.80
2019-05-11T02:04:54.169Z,12.70
2019-05-11T02:05:54.186Z,14.60
2019-05-11T02:06:54.147Z,14.90
2019-05-11T02:07:54.137Z,12.00
2019-05-11T02:08:54.149Z,12.00
2019-05-11T02:09:54.115Z,13.60
2019-05-11T02:10:54.099Z,13.70
2019-05-11T02:11:54.090Z,16.20
2019-05-11T02:12:54.081Z,15.10
2019-05-11T02:13:54.078Z,13.50
2019-05-11T02:14:54.083Z,13.00
2019-05-11T02:15:54.044Z,15.00
2019-05-11T02:16:54.031Z,12.60
2019-05-11T02:17:54.063Z,14.00
2019-05-11T02:18:54.039Z,14.30
2019-05-11T02:19:54.023Z,14.00
2019-05-11T02:20:54.009Z,14.70
2019-05-11T02:21:53.976Z,16.30
2019-05-11T02:22:53.972Z,17.70
2019-05-11T02:23:53.951Z,17.60
2019-05-11T02:24:53.955Z,15.10
2019-05-11T02:25:53.959Z,15.80
2019-05-11T02:26:53.920Z,16.20
2019-05-11T02:27:53.907Z,16.30
2019-05-11T02:28:53.895Z,15.80
2019-05-11T02:29:53.885Z,15.80
2019-05-11T02:30:53.881Z,15.70
2019-05-11T02:31:53.896Z,16.30
2019-05-11T02:32:53.871Z,15.10
2019-05-11T02:33:53.849Z,14.80
2019-05-11T02:34:53.829Z,14.80
2019-05-11T02:35:53.823Z,13.60
2019-05-11T02:36:53.809Z,14.70
2019-05-11T02:37:53.809Z,13.90
2019-05-11T02:38:53.785Z,13.10
2019-05-11T02:39:53.772Z,11.80
2019-05-11T02:40:53.764Z,12.80
2019-05-11T02:41:53.749Z,13.50
2019-05-11T02:42:53.783Z,12.70
2019-05-11T02:43:53.727Z,13.50
2019-05-11T02:44:53.712Z,12.80
2019-05-11T02:45:53.702Z,13.10
2019-05-11T02:46:53.690Z,13.40
2019-05-11T02:47:53.679Z,13.30
2019-05-11T02:48:53.703Z,13.60
2019-05-11T02:49:53.657Z,13.70
2019-05-11T02:50:53.650Z,12.40
2019-05-11T02:51:53.637Z,12.70
2019-05-11T02:52:53.624Z,12.90
2019-05-11T02:53:53.622Z,13.80
2019-05-11T02:54:53.632Z,12.40
2019-05-11T02:55:53.593Z,12.00
2019-05-11T02:56:53.575Z,12.60
2019-05-11T02:57:53.566Z,17.20
2019-05-11T02:58:53.554Z,12.20
2019-05-11T02:59:53.546Z,12.00
2019-05-11T03:00:53.575Z,13.80
2019-05-11T03:01:53.518Z,12.90
2019-05-11T03:02:53.511Z,12.70
2019-05-11T03:03:53.495Z,13.10
2019-05-11T03:04:53.485Z,13.20
2019-05-11T03:05:53.473Z,13.60
2019-05-11T03:06:53.491Z,12.40
2019-05-11T03:07:53.450Z,13.10
2019-05-11T03:08:53.441Z,13.30
2019-05-11T03:09:53.426Z,13.70
2019-05-11T03:10:53.414Z,12.00
2019-05-11T03:11:56.139Z,12.60
2019-05-11T03:12:53.423Z,13.10
2019-05-11T03:13:53.444Z,12.10
2019-05-11T03:14:53.373Z,12.80
2019-05-11T03:15:53.358Z,13.10
2019-05-11T03:16:53.349Z,13.70
2019-05-11T03:17:53.335Z,13.50
2019-05-11T03:18:53.353Z,13.20
2019-05-11T03:19:53.320Z,12.30
2019-05-11T03:20:53.302Z,13.00
2019-05-11T03:21:53.287Z,14.20
2019-05-11T03:22:53.278Z,13.60
2019-05-11T03:23:53.268Z,12.50
2019-05-11T03:24:53.292Z,13.00
2019-05-11T03:25:53.240Z,12.50
2019-05-11T03:26:53.230Z,13.10
2019-05-11T03:27:53.217Z,13.00
2019-05-11T03:28:53.206Z,14.10
2019-05-11T03:29:53.196Z,13.40
2019-05-11T03:30:53.227Z,13.20
2019-05-11T03:31:53.174Z,14.60
2019-05-11T03:32:53.185Z,14.60
2019-05-11T03:33:53.155Z,13.70
2019-05-11T03:34:53.171Z,14.00
2019-05-11T03:35:53.143Z,13.30
2019-05-11T03:36:53.247Z,14.50
2019-05-11T03:37:53.104Z,15.00
2019-05-11T03:38:53.093Z,14.00
2019-05-11T03:39:53.088Z,14.80
2019-05-11T03:40:53.141Z,13.40
2019-05-11T03:41:53.058Z,14.30
2019-05-11T03:42:53.082Z,13.00
2019-05-11T03:43:53.039Z,14.40
2019-05-11T03:44:53.025Z,13.60
2019-05-11T03:45:53.020Z,12.70
2019-05-11T03:46:53.002Z,13.40
2019-05-11T03:47:53.000Z,16.20
2019-05-11T03:48:53.006Z,13.70
2019-05-11T03:49:52.967Z,14.30
2019-05-11T03:50:52.959Z,13.50
2019-05-11T03:51:52.955Z,12.90
2019-05-11T03:52:52.933Z,13.50
2019-05-11T03:53:52.922Z,14.40
2019-05-11T03:54:52.940Z,14.60
2019-05-11T03:55:52.900Z,13.90
2019-05-11T03:56:52.887Z,15.10
2019-05-11T03:57:52.877Z,14.20
2019-05-11T03:58:52.872Z,13.40
2019-05-11T03:59:52.851Z,13.90
2019-05-11T04:00:52.869Z,15.50
2019-05-11T04:01:52.828Z,13.50
2019-05-11T04:02:52.815Z,13.40
2019-05-11T04:03:52.806Z,13.60
2019-05-11T04:04:52.801Z,13.80
2019-05-11T04:05:52.783Z,13.50
2019-05-11T04:06:52.800Z,13.80
2019-05-11T04:07:52.759Z,13.20
2019-05-11T04:08:52.749Z,14.00
2019-05-11T04:09:52.737Z,16.40
2019-05-11T04:10:52.732Z,13.20
2019-05-11T04:11:52.716Z,14.70
2019-05-11T04:12:52.729Z,13.00
2019-05-11T04:13:52.688Z,13.70
2019-05-11T04:14:52.678Z,14.00
2019-05-11T04:15:52.667Z,12.90
2019-05-11T04:16:52.656Z,13.00
2019-05-11T04:17:52.648Z,12.40
2019-05-11T04:18:52.662Z,12.70
2019-05-11T04:19:52.621Z,13.90
2019-05-11T04:20:52.613Z,13.10
2019-05-11T04:21:52.598Z,12.40
2019-05-11T04:22:52.591Z,13.10
2019-05-11T04:23:52.682Z,15.10
2019-05-11T04:24:52.598Z,15.40
2019-05-11T04:25:52.551Z,13.50
2019-05-11T04:26:52.541Z,12.70
2019-05-11T04:27:52.532Z,14.40
2019-05-11T04:28:52.517Z,13.70
2019-05-11T04:29:52.506Z,15.00
2019-05-11T04:30:52.522Z,13.00
2019-05-11T04:31:52.485Z,13.10
2019-05-11T04:32:52.477Z,13.70
2019-05-11T04:33:52.458Z,13.40
2019-05-11T04:34:52.451Z,13.10
2019-05-11T04:35:52.438Z,16.30
2019-05-11T04:36:52.457Z,13.30
2019-05-11T04:37:52.417Z,15.20
2019-05-11T04:38:52.402Z,14.10
2019-05-11T04:39:52.391Z,14.30
2019-05-11T04:40:52.378Z,12.70
2019-05-11T04:41:52.368Z,15.80
2019-05-11T04:42:55.604Z,12.10
2019-05-11T04:43:52.343Z,13.90
2019-05-11T04:44:52.715Z,12.50
2019-05-11T04:45:52.323Z,13.60
2019-05-11T04:46:52.309Z,13.20
2019-05-11T04:47:52.299Z,13.10
2019-05-11T04:48:52.318Z,13.90
2019-05-11T04:49:52.275Z,13.70
2019-05-11T04:50:52.263Z,14.00
2019-05-11T04:51:52.263Z,15.00
2019-05-11T04:52:52.240Z,12.90
2019-05-11T04:53:52.231Z,13.80
2019-05-11T04:54:52.246Z,12.30
2019-05-11T04:55:52.205Z,13.70
2019-05-11T04:56:52.196Z,13.00
2019-05-11T04:57:52.189Z,12.30
2019-05-11T04:58:52.172Z,13.30
2019-05-11T04:59:52.160Z,12.00
2019-05-11T05:00:52.181Z,13.60
2019-05-11T05:01:52.141Z,12.20
2019-05-11T05:02:52.130Z,13.70
2019-05-11T05:03:54.133Z,13.10
2019-05-11T05:04:52.108Z,12.50
2019-05-11T05:05:52.091Z,11.70
2019-05-11T05:06:59.849Z,14.20
2019-05-11T05:07:53.069Z,12.90
2019-05-11T05:08:52.058Z,13.20
2019-05-11T05:09:52.046Z,12.40
2019-05-11T05:10:57.831Z,12.10
2019-05-11T05:11:53.048Z,12.10
2019-05-11T05:12:53.420Z,12.40
2019-05-11T05:13:53.604Z,12.70
2019-05-11T05:14:51.988Z,13.10
2019-05-11T05:15:51.986Z,14.10
2019-05-11T05:16:51.964Z,12.40
2019-05-11T05:17:51.986Z,11.70
2019-05-11T05:18:51.941Z,11.60
2019-05-11T05:19:51.930Z,11.40
2019-05-11T05:20:51.923Z,13.40
2019-05-11T05:21:51.907Z,12.80
2019-05-11T05:22:51.894Z,11.00
2019-05-11T05:23:51.912Z,12.20
2019-05-11T05:24:51.874Z,13.20
2019-05-11T05:25:51.863Z,13.10
2019-05-11T05:26:51.853Z,11.90
2019-05-11T05:27:51.847Z,11.10
2019-05-11T05:28:51.843Z,12.30
2019-05-11T05:29:51.849Z,15.00
2019-05-11T05:30:51.806Z,12.90
2019-05-11T05:31:51.794Z,11.80
2019-05-11T05:32:51.781Z,12.40
2019-05-11T05:33:51.767Z,14.80
2019-05-11T05:34:51.757Z,15.90
2019-05-11T05:35:51.774Z,13.80
2019-05-11T05:36:51.735Z,12.90
2019-05-11T05:37:51.725Z,14.50
2019-05-11T05:38:51.714Z,13.20
2019-05-11T05:39:51.702Z,14.60
2019-05-11T05:40:51.690Z,14.10
2019-05-11T05:41:57.227Z,12.90
2019-05-11T05:42:52.665Z,13.00
2019-05-11T05:43:51.652Z,14.60
2019-05-11T05:44:51.645Z,12.60
2019-05-11T05:45:51.632Z,13.00
2019-05-11T05:46:51.620Z,14.80
2019-05-11T05:47:51.635Z,12.30
2019-05-11T05:48:51.597Z,14.10
2019-05-11T05:49:51.587Z,17.50
2019-05-11T05:50:51.576Z,12.40
2019-05-11T05:51:51.561Z,13.50
2019-05-11T05:52:51.551Z,12.50
2019-05-11T05:53:51.568Z,15.40
2019-05-11T05:54:51.525Z,14.80
2019-05-11T05:55:51.515Z,14.70
2019-05-11T05:56:51.503Z,13.50
2019-05-11T05:57:51.495Z,14.00
2019-05-11T05:58:51.491Z,13.10
2019-05-11T05:59:51.498Z,16.40
2019-05-11T06:00:51.457Z,12.80
2019-05-11T06:01:51.445Z,13.20
2019-05-11T06:02:51.445Z,13.10
2019-05-11T06:03:51.421Z,13.10
2019-05-11T06:04:51.410Z,13.10
2019-05-11T06:05:51.426Z,13.10
2019-05-11T06:06:51.387Z,13.70
2019-05-11T06:07:51.378Z,14.10
2019-05-11T06:08:51.370Z,15.40
2019-05-11T06:09:51.353Z,13.50
2019-05-11T06:10:51.344Z,13.10
2019-05-11T06:11:51.363Z,14.10
2019-05-11T06:12:51.319Z,13.90
2019-05-11T06:13:51.313Z,15.00
2019-05-11T06:14:51.295Z,14.40
2019-05-11T06:15:51.284Z,14.90
2019-05-11T06:16:51.275Z,13.80
2019-05-11T06:17:51.289Z,13.80
2019-05-11T06:18:51.252Z,14.10
2019-05-11T06:19:51.239Z,13.40
2019-05-11T06:20:51.225Z,14.20
2019-05-11T06:21:51.218Z,15.70
2019-05-11T06:22:51.203Z,16.00
2019-05-11T06:23:51.218Z,13.40
2019-05-11T06:24:51.181Z,13.70
2019-05-11T06:25:51.168Z,14.80
2019-05-11T06:26:51.156Z,13.50
2019-05-11T06:27:51.157Z,12.90
2019-05-11T06:28:51.135Z,14.10
2019-05-11T06:29:51.148Z,13.50
2019-05-11T06:30:51.115Z,13.50
2019-05-11T06:31:51.101Z,13.10
2019-05-11T06:32:51.092Z,14.10
2019-05-11T06:33:51.074Z,12.60
2019-05-11T06:34:51.068Z,12.50
2019-05-11T06:35:51.082Z,12.40
2019-05-11T06:36:51.059Z,12.50
2019-05-11T06:37:51.035Z,11.70
2019-05-11T06:38:51.020Z,12.30
2019-05-11T06:39:51.009Z,12.20
2019-05-11T06:40:50.997Z,14.10
2019-05-11T06:41:51.013Z,13.40
2019-05-11T06:42:50.983Z,13.70
2019-05-11T06:44:01.214Z,13.00
2019-05-11T06:44:51.948Z,12.00
2019-05-11T06:45:50.983Z,12.60
2019-05-11T06:46:50.930Z,13.60
2019-05-11T06:47:50.944Z,13.60
2019-05-11T06:48:50.925Z,12.70
2019-05-11T06:49:50.910Z,12.50
2019-05-11T06:50:50.950Z,12.40
2019-05-11T06:51:50.885Z,13.50
2019-05-11T06:52:50.860Z,14.00
2019-05-11T06:53:50.873Z,12.80
2019-05-11T06:54:50.835Z,15.00
2019-05-11T06:55:50.824Z,14.20
2019-05-11T06:56:50.814Z,11.70
2019-05-11T06:57:50.802Z,13.00
2019-05-11T06:58:50.792Z,12.30
2019-05-11T06:59:50.868Z,12.20
2019-05-11T07:00:50.766Z,13.00
2019-05-11T07:01:50.763Z,13.90
2019-05-11T07:02:50.750Z,13.20
2019-05-11T07:03:50.733Z,13.10
2019-05-11T07:04:50.727Z,12.40
2019-05-11T07:05:50.737Z,13.10
2019-05-11T07:06:50.701Z,12.40
2019-05-11T07:07:50.688Z,12.40
2019-05-11T07:08:50.676Z,12.90
2019-05-11T07:09:50.672Z,13.80
2019-05-11T07:10:50.653Z,12.40
2019-05-11T07:11:50.734Z,12.60
2019-05-11T07:12:50.630Z,14.00
2019-05-11T07:13:50.618Z,13.70
2019-05-11T07:14:50.606Z,12.10
2019-05-11T07:15:50.597Z,11.80
2019-05-11T07:16:50.585Z,12.70
2019-05-11T07:17:50.602Z,12.50
2019-05-11T07:18:50.559Z,13.60
2019-05-11T07:19:50.548Z,14.60
2019-05-11T07:20:51.113Z,14.30
2019-05-11T07:21:50.527Z,13.60
2019-05-11T07:22:50.521Z,13.00
2019-05-11T07:23:50.530Z,15.70
2019-05-11T07:24:50.489Z,11.90
2019-05-11T07:25:50.481Z,14.00
2019-05-11T07:26:50.470Z,12.40
2019-05-11T07:27:50.455Z,14.40
2019-05-11T07:28:50.444Z,15.00
2019-05-11T07:29:50.465Z,13.30
2019-05-11T07:30:50.433Z,14.10
2019-05-11T07:31:50.410Z,14.00
2019-05-11T07:32:50.398Z,13.80
2019-05-11T07:33:50.393Z,13.40
2019-05-11T07:34:50.375Z,12.60
2019-05-11T07:35:50.392Z,13.60
2019-05-11T07:36:50.357Z,13.70
2019-05-11T07:37:50.340Z,14.40
2019-05-11T07:38:50.329Z,13.70
2019-05-11T07:39:50.320Z,13.90
2019-05-11T07:40:50.305Z,14.20
2019-05-11T07:41:50.321Z,13.70
2019-05-11T07:42:50.283Z,13.50
2019-05-11T07:43:50.283Z,14.70
2019-05-11T07:44:50.268Z,15.00
2019-05-11T07:45:50.247Z,14.00
2019-05-11T07:46:50.237Z,14.30
2019-05-11T07:47:50.254Z,15.30
2019-05-11T07:48:50.214Z,14.40
2019-05-11T07:49:50.204Z,14.30
2019-05-11T07:50:50.190Z,14.60
2019-05-11T07:51:50.183Z,14.70
2019-05-11T07:52:50.166Z,15.20
2019-05-11T07:53:50.185Z,16.30
2019-05-11T07:54:52.923Z,13.90
2019-05-11T07:55:50.133Z,14.80
2019-05-11T07:56:50.125Z,16.60
2019-05-11T07:57:50.109Z,16.70
2019-05-11T07:58:50.100Z,14.90
2019-05-11T07:59:50.115Z,14.00
2019-05-11T08:00:50.074Z,14.90
2019-05-11T08:01:50.065Z,14.70
2019-05-11T08:02:50.059Z,14.70
2019-05-11T08:03:50.040Z,14.00
2019-05-11T08:04:50.030Z,16.00
2019-05-11T08:05:50.053Z,22.70
2019-05-11T08:06:50.011Z,20.50
2019-05-11T08:07:49.997Z,18.40
2019-05-11T08:08:49.983Z,18.90
2019-05-11T08:09:49.972Z,16.10
2019-05-11T08:10:49.966Z,17.60
2019-05-11T08:11:49.988Z,15.90
2019-05-11T08:12:49.941Z,16.60
2019-05-11T08:13:49.925Z,17.10
2019-05-11T08:14:59.109Z,14.90
2019-05-11T08:15:50.902Z,15.40
2019-05-11T08:16:49.892Z,16.70
2019-05-11T08:17:49.907Z,17.30
2019-05-11T08:18:49.868Z,15.50
2019-05-11T08:19:49.857Z,16.60
2019-05-11T08:20:49.843Z,17.30
2019-05-11T08:21:49.833Z,15.00
2019-05-11T08:22:49.820Z,17.80
2019-05-11T08:23:49.837Z,15.80
2019-05-11T08:24:49.797Z,15.70
2019-05-11T08:25:49.788Z,19.00
2019-05-11T08:26:49.774Z,16.80
2019-05-11T08:27:49.774Z,16.50
2019-05-11T08:28:49.752Z,16.40
2019-05-11T08:29:49.766Z,18.90
2019-05-11T08:30:49.730Z,15.60
2019-05-11T08:31:49.716Z,16.50
2019-05-11T08:32:49.707Z,17.40
2019-05-11T08:33:49.693Z,16.30
2019-05-11T08:34:49.682Z,17.60
2019-05-11T08:35:49.713Z,15.90
2019-05-11T08:36:49.660Z,15.80
2019-05-11T08:37:49.674Z,17.00
2019-05-11T08:38:49.635Z,15.80
2019-05-11T08:39:49.627Z,16.40
2019-05-11T08:40:49.613Z,17.40
2019-05-11T08:41:49.629Z,17.30
2019-05-11T08:42:49.590Z,17.80
2019-05-11T08:43:49.577Z,16.60
2019-05-11T08:44:49.567Z,16.00
2019-05-11T08:45:49.553Z,17.50
2019-05-11T08:46:49.544Z,17.30
2019-05-11T08:47:49.562Z,17.80
2019-05-11T08:48:49.523Z,17.50
2019-05-11T08:49:49.509Z,17.30
2019-05-11T08:50:49.504Z,17.00
2019-05-11T08:51:49.489Z,18.50
2019-05-11T08:52:49.477Z,17.70
2019-05-11T08:53:49.489Z,17.20
2019-05-11T08:54:49.450Z,16.40
2019-05-11T08:55:49.440Z,16.70
2019-05-11T08:56:49.429Z,17.40
2019-05-11T08:57:49.417Z,17.00
2019-05-11T08:58:49.407Z,18.80
2019-05-11T08:59:49.409Z,18.90
2019-05-11T09:00:49.384Z,17.90
2019-05-11T09:01:49.374Z,18.50
2019-05-11T09:02:50.719Z,17.60
2019-05-11T09:03:49.350Z,18.30
2019-05-11T09:04:49.368Z,17.20
2019-05-11T09:05:49.327Z,16.70
2019-05-11T09:06:49.314Z,18.50
2019-05-11T09:07:49.302Z,18.10
2019-05-11T09:08:49.560Z,18.10
2019-05-11T09:09:49.282Z,19.00
2019-05-11T09:10:49.381Z,19.00
2019-05-11T09:11:49.254Z,18.50
2019-05-11T09:12:49.253Z,18.60
2019-05-11T09:13:49.233Z,20.20
2019-05-11T09:14:49.226Z,19.60
2019-05-11T09:15:49.237Z,19.80
2019-05-11T09:16:49.199Z,23.90
2019-05-11T09:17:49.940Z,19.70
2019-05-11T09:18:49.177Z,21.10
2019-05-11T09:19:49.162Z,19.50
2019-05-11T09:20:49.154Z,18.50
2019-05-11T09:21:49.157Z,19.90
2019-05-11T09:22:49.128Z,21.60
2019-05-11T09:23:49.120Z,19.30
2019-05-11T09:24:49.106Z,18.40
2019-05-11T09:25:49.094Z,19.50
2019-05-11T09:26:49.108Z,22.40
2019-05-11T09:27:49.082Z,20.60
2019-05-11T09:28:49.059Z,21.00
2019-05-11T09:29:49.049Z,20.60
2019-05-11T09:30:49.036Z,21.40
2019-05-11T09:31:49.028Z,18.00
2019-05-11T09:32:49.030Z,20.60
2019-05-11T09:33:49.002Z,19.40
2019-05-11T09:34:48.990Z,20.90
2019-05-11T09:35:52.981Z,20.50
2019-05-11T09:36:48.968Z,21.40
2019-05-11T09:37:48.983Z,21.10
2019-05-11T09:38:49.216Z,21.20
2019-05-11T09:39:48.934Z,20.70
2019-05-11T09:40:48.921Z,21.50
2019-05-11T09:41:49.018Z,20.10
2019-05-11T09:42:48.898Z,21.50
2019-05-11T09:43:48.902Z,20.90
2019-05-11T09:44:48.879Z,20.70
2019-05-11T09:45:51.618Z,20.10
2019-05-11T09:46:48.853Z,19.50
2019-05-11T09:47:48.843Z,20.70
2019-05-11T09:48:48.847Z,21.40
2019-05-11T09:49:50.964Z,20.50
2019-05-11T09:50:48.820Z,19.40
2019-05-11T09:51:48.794Z,23.90
2019-05-11T09:52:49.168Z,19.80
2019-05-11T09:53:48.771Z,23.10
2019-05-11T09:54:48.845Z,21.40
2019-05-11T09:55:48.763Z,22.30
2019-05-11T09:56:48.846Z,21.90
2019-05-11T09:57:48.949Z,20.30
2019-05-11T09:58:48.715Z,21.10
2019-05-11T09:59:48.702Z,19.70
2019-05-11T10:00:48.707Z,22.10
2019-05-11T10:01:48.684Z,24.30
2019-05-11T10:02:49.017Z,21.00
2019-05-11T10:03:48.655Z,21.60
2019-05-11T10:04:48.642Z,23.00
2019-05-11T10:05:48.831Z,22.00
2019-05-11T10:06:48.620Z,22.80
2019-05-11T10:07:48.706Z,21.90
2019-05-11T10:08:48.946Z,22.40
2019-05-11T10:09:48.586Z,20.50
2019-05-11T10:10:48.908Z,21.10
2019-05-11T10:11:48.561Z,21.70
2019-05-11T10:12:52.266Z,21.30
2019-05-11T10:13:48.542Z,21.40
2019-05-11T10:14:48.711Z,21.40
2019-05-11T10:16:00.950Z,20.90
2019-05-11T10:16:49.503Z,22.10
2019-05-11T10:17:48.494Z,21.90
2019-05-11T10:18:49.340Z,21.00
2019-05-11T10:19:49.737Z,19.30
2019-05-11T10:20:48.476Z,20.00
2019-05-11T10:21:48.806Z,20.20
2019-05-11T10:22:48.728Z,20.00
2019-05-11T10:23:49.013Z,19.40
2019-05-11T10:24:48.413Z,19.30
2019-05-11T10:25:48.416Z,18.80
2019-05-11T10:26:48.794Z,20.30
2019-05-11T10:27:49.088Z,22.40
2019-05-11T10:28:48.495Z,19.30
2019-05-11T10:29:48.631Z,19.80
2019-05-11T10:30:48.691Z,19.00
2019-05-11T10:31:48.336Z,19.90
2019-05-11T10:32:48.557Z,21.50
2019-05-11T10:33:49.090Z,18.70
2019-05-11T10:34:48.299Z,18.40
2019-05-11T10:35:48.492Z,18.50
2019-05-11T10:36:48.763Z,17.80
2019-05-11T10:37:48.263Z,18.60
2019-05-11T10:38:48.832Z,16.60
2019-05-11T10:39:48.897Z,17.60
2019-05-11T10:40:48.250Z,16.50
2019-05-11T10:41:48.227Z,18.80
2019-05-11T10:42:48.494Z,18.50
2019-05-11T10:43:49.086Z,16.90
2019-05-11T10:44:48.183Z,17.40
2019-05-11T10:45:48.469Z,17.50
2019-05-11T10:46:48.394Z,17.50
2019-05-11T10:47:48.952Z,17.30
2019-05-11T10:48:48.536Z,16.70
2019-05-11T10:49:48.609Z,16.40
2019-05-11T10:50:48.485Z,15.30
2019-05-11T10:51:48.738Z,15.10
2019-05-11T10:52:48.478Z,16.50
2019-05-11T10:53:51.640Z,17.30
2019-05-11T10:54:48.079Z,18.60
2019-05-11T10:55:48.117Z,18.10
2019-05-11T10:56:48.293Z,20.00
2019-05-11T10:57:48.723Z,18.30
2019-05-11T10:58:48.381Z,18.00
2019-05-11T10:59:48.871Z,17.80
2019-05-11T11:00:48.192Z,16.10
2019-05-11T11:01:48.471Z,16.30
2019-05-11T11:02:47.983Z,16.70
2019-05-11T11:03:48.533Z,16.70
2019-05-11T11:04:48.557Z,17.30
2019-05-11T11:05:48.796Z,19.00
2019-05-11T11:06:48.556Z,18.00
2019-05-11T11:07:48.542Z,16.90
2019-05-11T11:08:48.737Z,17.70
2019-05-11T11:09:49.020Z,18.00
2019-05-11T11:10:48.509Z,18.70
2019-05-11T11:11:48.904Z,17.50
2019-05-11T11:12:48.943Z,16.10
2019-05-11T11:13:48.250Z,17.00
2019-05-11T11:14:48.285Z,17.30
2019-05-11T11:15:48.518Z,18.70
2019-05-11T11:16:48.103Z,15.10
2019-05-11T11:17:48.560Z,15.60
2019-05-11T11:18:48.651Z,15.90
2019-05-11T11:19:48.637Z,15.30
2019-05-11T11:20:48.908Z,15.90
2019-05-11T11:21:48.765Z,16.30
2019-05-11T11:22:48.283Z,16.90
2019-05-11T11:23:48.144Z,16.70
2019-05-11T11:24:48.300Z,16.10
2019-05-11T11:25:48.260Z,17.00
2019-05-11T11:26:48.650Z,17.90
2019-05-11T11:27:48.609Z,15.80
2019-05-11T11:28:48.022Z,17.30
2019-05-11T11:29:47.721Z,17.30
2019-05-11T11:30:48.149Z,17.30
2019-05-11T11:31:48.173Z,15.90
2019-05-11T11:32:48.227Z,16.30
2019-05-11T11:33:48.867Z,16.90
2019-05-11T11:34:48.459Z,17.20
2019-05-11T11:35:47.800Z,17.30
2019-05-11T11:36:48.240Z,16.80
2019-05-11T11:37:47.954Z,15.90
2019-05-11T11:38:48.055Z,16.70
2019-05-11T11:39:47.722Z,16.10
2019-05-11T11:40:48.224Z,16.20
2019-05-11T11:41:48.609Z,15.50
2019-05-11T11:42:47.885Z,14.00
2019-05-11T11:43:48.247Z,15.00
2019-05-11T11:44:48.345Z,13.60
2019-05-11T11:45:48.475Z,12.50
2019-05-11T11:46:54.519Z,12.90
2019-05-11T11:47:49.383Z,13.40
2019-05-11T11:48:48.862Z,13.60
2019-05-11T11:49:47.650Z,13.90
2019-05-11T11:50:48.089Z,13.70
2019-05-11T11:51:48.431Z,13.70
2019-05-11T11:52:47.790Z,13.60
2019-05-11T11:53:47.986Z,14.20
2019-05-11T11:54:47.888Z,14.30
2019-05-11T11:55:48.220Z,13.40
2019-05-11T11:56:48.642Z,13.70
2019-05-11T11:57:48.641Z,15.10
2019-05-11T11:58:48.854Z,14.50
2019-05-11T11:59:48.145Z,13.70
2019-05-11T12:00:48.244Z,13.90
2019-05-11T12:01:48.708Z,13.90
2019-05-11T12:02:48.707Z,13.30
2019-05-11T12:03:48.853Z,12.90
2019-05-11T12:04:48.615Z,11.80
2019-05-11T12:05:47.849Z,11.00
2019-05-11T12:06:49.046Z,11.10
2019-05-11T12:07:49.051Z,10.80
2019-05-11T12:08:49.773Z,9.60
2019-05-11T12:09:48.378Z,10.20
2019-05-11T12:10:48.435Z,9.00
2019-05-11T12:11:48.636Z,9.10
2019-05-11T12:12:47.644Z,10.10
2019-05-11T12:13:47.573Z,10.70
2019-05-11T12:14:48.010Z,10.10
2019-05-11T12:15:48.241Z,13.80
2019-05-11T12:16:47.970Z,12.50
2019-05-11T12:17:48.495Z,9.10
2019-05-11T12:18:48.635Z,11.70
2019-05-11T12:19:47.779Z,10.20
2019-05-11T12:20:48.065Z,11.10
2019-05-11T12:21:48.365Z,10.40
2019-05-11T12:22:47.682Z,10.40
2019-05-11T12:23:48.665Z,10.20
2019-05-11T12:24:48.168Z,10.80
2019-05-11T12:25:48.681Z,10.30
2019-05-11T12:26:48.014Z,11.30
2019-05-11T12:27:49.031Z,10.90
2019-05-11T12:28:49.045Z,10.70
2019-05-11T12:29:47.680Z,10.50
2019-05-11T12:30:48.088Z,13.10
2019-05-11T12:31:48.508Z,10.30
2019-05-11T12:32:48.806Z,11.20
2019-05-11T12:33:48.200Z,10.50
2019-05-11T12:34:48.285Z,11.70
2019-05-11T12:35:48.173Z,11.40
2019-05-11T12:36:48.021Z,12.00
2019-05-11T12:37:48.518Z,10.00
2019-05-11T12:38:48.799Z,10.90
2019-05-11T12:39:47.858Z,10.90
2019-05-11T12:40:47.701Z,12.10
2019-05-11T12:41:47.973Z,10.40
2019-05-11T12:42:48.854Z,10.90
2019-05-11T12:43:48.964Z,10.70
2019-05-11T12:44:48.183Z,10.40
2019-05-11T12:45:48.135Z,11.00
2019-05-11T12:46:48.873Z,10.70
2019-05-11T12:47:47.993Z,11.70
2019-05-11T12:48:48.548Z,11.50
2019-05-11T12:49:48.339Z,10.90
2019-05-11T12:50:48.435Z,11.40
2019-05-11T12:51:48.698Z,16.10
2019-05-11T12:52:47.654Z,11.60